createdAt,value
2019-04-03T00:00:05.651Z,10.40
2019-04-03T00:01:05.565Z,10.40
2019-04-03T00:02:05.557Z,10.40
2019-04-03T00:03:05.654Z,10.40
2019-04-03T00:04:05.577Z,10.40
2019-04-03T00:05:05.566Z,10.40
2019-04-03T00:06:06.083Z,10.40
2019-04-03T00:07:05.985Z,10.40
2019-04-03T00:08:06.373Z,10.40
2019-04-03T00:09:06.471Z,10.30
2019-04-03T00:10:06.595Z,10.30
2019-04-03T00:11:08.255Z,10.30
2019-04-03T00:12:05.559Z,10.30
2019-04-03T00:14:05.601Z,10.30
2019-04-03T00:14:12.100Z,10.30
2019-04-03T00:15:05.558Z,10.30
2019-04-03T00:16:05.570Z,10.30
2019-04-03T00:17:05.585Z,10.30
2019-04-03T00:18:05.579Z,10.30
2019-04-03T00:19:05.578Z,10.30
2019-04-03T00:20:05.749Z,10.30
2019-04-03T00:21:05.573Z,10.20
2019-04-03T00:23:05.620Z,10.20
2019-04-03T00:23:10.682Z,10.30
2019-04-03T00:24:05.564Z,10.20
2019-04-03T00:25:05.674Z,10.20
2019-04-03T00:26:05.593Z,10.20
2019-04-03T00:27:05.565Z,10.20
2019-04-03T00:28:05.569Z,10.20
2019-04-03T00:29:05.629Z,10.20
2019-04-03T00:30:05.639Z,10.30
2019-04-03T00:31:05.578Z,10.30
2019-04-03T00:32:05.703Z,10.30
2019-04-03T00:33:05.597Z,10.30
2019-04-03T00:34:05.590Z,10.20
2019-04-03T00:35:05.596Z,10.30
2019-04-03T00:36:05.604Z,10.30
2019-04-03T00:37:05.602Z,10.30
2019-04-03T00:38:05.775Z,10.30
2019-04-03T00:39:05.644Z,10.30
2019-04-03T00:40:05.579Z,10.20
2019-04-03T00:41:05.651Z,10.20
2019-04-03T00:42:05.580Z,10.20
2019-04-03T00:43:05.625Z,10.20
2019-04-03T00:44:05.561Z,10.20
2019-04-03T00:45:05.608Z,10.20
2019-04-03T00:46:05.561Z,10.20
2019-04-03T00:47:05.658Z,10.20
2019-04-03T00:48:05.599Z,10.20
2019-04-03T00:49:05.627Z,10.20
2019-04-03T00:50:09.479Z,10.20
2019-04-03T00:51:05.598Z,10.20
2019-04-03T00:52:05.689Z,10.20
2019-04-03T00:54:05.785Z,10.20
2019-04-03T00:54:10.398Z,10.20
2019-04-03T00:55:05.606Z,10.20
2019-04-03T00:56:05.670Z,10.10
2019-04-03T00:57:05.601Z,10.10
2019-04-03T00:58:05.657Z,10.10
2019-04-03T00:59:05.613Z,10.10
2019-04-03T01:00:05.657Z,10.10
2019-04-03T01:01:05.727Z,10.10
2019-04-03T01:02:05.605Z,10.10
2019-04-03T01:03:05.597Z,10.10
2019-04-03T01:04:05.634Z,10.10
2019-04-03T01:05:05.613Z,10.00
2019-04-03T01:06:05.621Z,10.10
2019-04-03T01:07:05.626Z,10.00
2019-04-03T01:08:05.659Z,10.00
2019-04-03T01:09:05.591Z,10.00
2019-04-03T01:10:05.812Z,10.00
2019-04-03T01:11:05.699Z,10.00
2019-04-03T01:12:05.623Z,10.00
2019-04-03T01:13:05.593Z,10.00
2019-04-03T01:14:05.649Z,10.00
2019-04-03T01:15:05.607Z,10.00
2019-04-03T01:16:05.656Z,9.90
2019-04-03T01:17:05.815Z,9.90
2019-04-03T01:18:05.620Z,9.90
2019-04-03T01:19:06.290Z,9.90
2019-04-03T01:20:06.314Z,9.90
2019-04-03T01:21:06.799Z,9.90
2019-04-03T01:22:07.329Z,9.80
2019-04-03T01:23:07.242Z,9.80
2019-04-03T01:24:07.289Z,9.80
2019-04-03T01:25:08.169Z,9.80
2019-04-03T01:26:05.669Z,9.80
2019-04-03T01:27:05.640Z,9.80
2019-04-03T01:28:05.660Z,9.80
2019-04-03T01:29:05.612Z,9.80
2019-04-03T01:30:05.640Z,9.80
2019-04-03T01:31:05.683Z,9.80
2019-04-03T01:32:05.806Z,9.80
2019-04-03T01:33:05.688Z,9.80
2019-04-03T01:34:05.606Z,9.80
2019-04-03T01:35:05.829Z,9.80
2019-04-03T01:36:05.602Z,9.80
2019-04-03T01:37:05.751Z,9.80
2019-04-03T01:38:05.739Z,9.70
2019-04-03T01:39:05.650Z,9.70
2019-04-03T01:40:05.647Z,9.70
2019-04-03T01:41:05.705Z,9.70
2019-04-03T01:42:05.620Z,9.60
2019-04-03T01:43:05.671Z,9.60
2019-04-03T01:45:05.700Z,9.60
2019-04-03T01:47:05.719Z,9.60
2019-04-03T01:48:05.618Z,9.50
2019-04-03T01:49:05.623Z,9.50
2019-04-03T01:50:05.767Z,9.50
2019-04-03T01:51:05.630Z,9.50
2019-04-03T01:52:05.930Z,9.50
2019-04-03T01:53:05.668Z,9.50
2019-04-03T01:54:05.708Z,9.50
2019-04-03T01:55:05.641Z,9.50
2019-04-03T01:56:05.641Z,9.50
2019-04-03T01:57:06.388Z,9.50
2019-04-03T01:58:06.491Z,9.50
2019-04-03T01:59:06.556Z,9.50
2019-04-03T02:00:07.343Z,9.50
2019-04-03T02:01:06.274Z,9.50
2019-04-03T02:02:06.666Z,9.50
2019-04-03T02:03:05.638Z,9.50
2019-04-03T02:05:05.718Z,9.50
2019-04-03T02:06:05.825Z,9.50
2019-04-03T02:07:05.666Z,9.50
2019-04-03T02:08:05.666Z,9.50
2019-04-03T02:09:05.675Z,9.50
2019-04-03T02:10:05.668Z,9.50
2019-04-03T02:11:05.697Z,9.50
2019-04-03T02:12:05.660Z,9.50
2019-04-03T02:13:05.736Z,9.50
2019-04-03T02:14:05.716Z,9.50
2019-04-03T02:15:05.675Z,9.50
2019-04-03T02:16:05.914Z,9.50
2019-04-03T02:17:05.807Z,9.40
2019-04-03T02:18:05.691Z,9.40
2019-04-03T02:19:05.693Z,9.40
2019-04-03T02:20:05.674Z,9.40
2019-04-03T02:21:05.670Z,9.40
2019-04-03T02:22:05.714Z,9.40
2019-04-03T02:23:05.733Z,9.40
2019-04-03T02:24:05.795Z,9.40
2019-04-03T02:25:05.701Z,9.40
2019-04-03T02:26:05.794Z,9.50
2019-04-03T02:27:05.739Z,9.50
2019-04-03T02:28:05.719Z,9.50
2019-04-03T02:29:08.168Z,9.50
2019-04-03T02:30:05.700Z,9.50
2019-04-03T02:31:05.796Z,9.50
2019-04-03T02:32:05.761Z,9.50
2019-04-03T02:33:05.709Z,9.50
2019-04-03T02:34:05.780Z,9.50
2019-04-03T02:35:07.679Z,9.50
2019-04-03T02:36:05.758Z,9.50
2019-04-03T02:37:05.739Z,9.50
2019-04-03T02:38:05.723Z,9.50
2019-04-03T02:39:05.717Z,9.50
2019-04-03T02:40:05.692Z,9.50
2019-04-03T02:41:05.713Z,9.50
2019-04-03T02:42:08.470Z,9.50
2019-04-03T02:43:13.417Z,9.40
2019-04-03T02:44:05.804Z,9.40
2019-04-03T02:45:05.751Z,9.40
2019-04-03T02:46:05.813Z,9.40
2019-04-03T02:47:05.743Z,9.40
2019-04-03T02:48:06.488Z,9.40
2019-04-03T02:49:09.009Z,9.40
2019-04-03T02:50:05.737Z,9.40
2019-04-03T02:51:05.763Z,9.40
2019-04-03T02:52:05.779Z,9.30
2019-04-03T02:53:05.774Z,9.30
2019-04-03T02:54:05.789Z,9.30
2019-04-03T02:55:07.271Z,9.30
2019-04-03T02:56:05.707Z,9.30
2019-04-03T02:57:05.781Z,9.30
2019-04-03T02:58:05.745Z,9.30
2019-04-03T02:59:05.805Z,9.30
2019-04-03T03:00:05.800Z,9.30
2019-04-03T03:01:07.209Z,9.30
2019-04-03T03:02:05.721Z,9.30
2019-04-03T03:03:05.721Z,9.30
2019-04-03T03:04:05.703Z,9.30
2019-04-03T03:05:05.762Z,9.20
2019-04-03T03:06:05.718Z,9.20
2019-04-03T03:07:05.759Z,9.20
2019-04-03T03:08:07.964Z,9.20
2019-04-03T03:09:05.720Z,9.20
2019-04-03T03:10:05.980Z,9.20
2019-04-03T03:11:05.759Z,9.20
2019-04-03T03:12:05.732Z,9.20
2019-04-03T03:13:05.707Z,9.20
2019-04-03T03:14:07.171Z,9.20
2019-04-03T03:15:05.709Z,9.20
2019-04-03T03:16:05.750Z,9.20
2019-04-03T03:17:05.722Z,9.20
2019-04-03T03:18:06.021Z,9.20
2019-04-03T03:19:05.732Z,9.20
2019-04-03T03:20:07.458Z,9.20
2019-04-03T03:21:11.541Z,9.20
2019-04-03T03:22:05.886Z,9.20
2019-04-03T03:23:05.779Z,9.20
2019-04-03T03:24:05.736Z,9.20
2019-04-03T03:25:05.891Z,9.20
2019-04-03T03:26:06.194Z,9.20
2019-04-03T03:27:07.983Z,9.20
2019-04-03T03:28:05.740Z,9.20
2019-04-03T03:29:16.094Z,9.20
2019-04-03T03:31:07.382Z,9.20
2019-04-03T03:31:10.655Z,9.20
2019-04-03T03:32:14.413Z,9.10
2019-04-03T03:33:23.622Z,9.20
2019-04-03T03:34:06.441Z,9.10
2019-04-03T03:35:11.486Z,9.10
2019-04-03T03:36:05.890Z,9.10
2019-04-03T03:37:05.906Z,9.10
2019-04-03T03:38:06.941Z,9.10
2019-04-03T03:39:05.757Z,9.10
2019-04-03T03:40:05.769Z,9.10
2019-04-03T03:41:05.777Z,9.10
2019-04-03T03:42:05.764Z,9.10
2019-04-03T03:43:09.406Z,9.10
2019-04-03T03:44:09.510Z,9.10
2019-04-03T03:45:05.964Z,9.10
2019-04-03T03:46:05.905Z,9.10
2019-04-03T03:47:05.903Z,9.10
2019-04-03T03:48:09.094Z,9.10
2019-04-03T03:49:06.165Z,9.10
2019-04-03T03:50:05.734Z,9.10
2019-04-03T03:51:05.790Z,9.10
2019-04-03T03:52:06.263Z,9.10
2019-04-03T03:53:09.590Z,9.10
2019-04-03T03:54:05.754Z,9.10
2019-04-03T03:55:05.884Z,9.10
2019-04-03T03:56:05.744Z,9.00
2019-04-03T03:58:05.982Z,9.00
2019-04-03T03:59:05.768Z,9.00
2019-04-03T04:00:05.773Z,9.00
2019-04-03T04:01:05.854Z,9.00
2019-04-03T04:02:06.507Z,9.00
2019-04-03T04:03:08.495Z,9.00
2019-04-03T04:04:05.841Z,9.00
2019-04-03T04:05:09.753Z,9.00
2019-04-03T04:06:05.963Z,9.00
2019-04-03T04:07:05.888Z,9.00
2019-04-03T04:08:08.920Z,9.00
2019-04-03T04:09:05.994Z,9.00
2019-04-03T04:10:05.769Z,9.00
2019-04-03T04:11:05.624Z,9.00
2019-04-03T04:12:07.284Z,8.90
2019-04-03T04:13:05.798Z,8.90
2019-04-03T04:14:05.973Z,8.90
2019-04-03T04:15:05.788Z,8.90
2019-04-03T04:16:05.822Z,8.90
2019-04-03T04:17:08.575Z,8.80
2019-04-03T04:18:06.101Z,8.80
2019-04-03T04:19:05.765Z,8.80
2019-04-03T04:20:06.203Z,8.80
2019-04-03T04:21:09.322Z,8.80
2019-04-03T04:22:05.799Z,8.80
2019-04-03T04:23:06.180Z,8.80
2019-04-03T04:24:05.812Z,8.80
2019-04-03T04:25:05.776Z,8.80
2019-04-03T04:26:05.785Z,8.80
2019-04-03T04:27:05.796Z,8.80
2019-04-03T04:28:08.252Z,8.70
2019-04-03T04:29:06.059Z,8.70
2019-04-03T04:30:05.787Z,8.70
2019-04-03T04:32:10.747Z,8.70
2019-04-03T04:33:05.791Z,8.70
2019-04-03T04:33:10.952Z,8.70
2019-04-03T04:34:05.801Z,8.70
2019-04-03T04:35:05.785Z,8.70
2019-04-03T04:36:05.942Z,8.70
2019-04-03T04:37:05.776Z,8.70
2019-04-03T04:38:05.796Z,8.70
2019-04-03T04:39:05.792Z,8.70
2019-04-03T04:40:05.792Z,8.60
2019-04-03T04:41:05.906Z,8.60
2019-04-03T04:42:05.781Z,8.60
2019-04-03T04:43:07.331Z,8.60
2019-04-03T04:44:06.002Z,8.60
2019-04-03T04:45:05.847Z,8.60
2019-04-03T04:46:05.787Z,8.50
2019-04-03T04:47:05.633Z,8.50
2019-04-03T04:48:05.871Z,8.50
2019-04-03T04:49:05.802Z,8.50
2019-04-03T04:50:05.809Z,8.50
2019-04-03T04:51:05.795Z,8.50
2019-04-03T04:52:05.815Z,8.50
2019-04-03T04:53:09.497Z,8.40
2019-04-03T04:54:05.837Z,8.50
2019-04-03T04:55:05.878Z,8.50
2019-04-03T04:56:06.472Z,8.50
2019-04-03T04:58:05.874Z,8.40
2019-04-03T04:59:05.841Z,8.40
2019-04-03T05:00:05.798Z,8.40
2019-04-03T05:01:05.842Z,8.40
2019-04-03T05:02:05.825Z,8.40
2019-04-03T05:03:05.869Z,8.40
2019-04-03T05:04:06.082Z,8.40
2019-04-03T05:05:08.441Z,8.40
2019-04-03T05:06:05.865Z,8.40
2019-04-03T05:07:06.039Z,8.40
2019-04-03T05:08:05.824Z,8.40
2019-04-03T05:09:05.820Z,8.40
2019-04-03T05:10:06.511Z,8.40
2019-04-03T05:11:07.465Z,8.40
2019-04-03T05:13:06.086Z,8.40
2019-04-03T05:14:05.821Z,8.40
2019-04-03T05:15:05.797Z,8.40
2019-04-03T05:16:05.937Z,8.40
2019-04-03T05:17:05.824Z,8.40
2019-04-03T05:18:05.852Z,8.40
2019-04-03T05:19:09.931Z,8.40
2019-04-03T05:20:05.837Z,8.40
2019-04-03T05:21:05.823Z,8.40
2019-04-03T05:22:05.963Z,8.40
2019-04-03T05:23:06.084Z,8.30
2019-04-03T05:24:12.394Z,8.40
2019-04-03T05:25:05.700Z,8.30
2019-04-03T05:26:05.822Z,8.40
2019-04-03T05:27:07.409Z,8.40
2019-04-03T05:28:05.817Z,8.40
2019-04-03T05:29:05.843Z,8.40
2019-04-03T05:30:06.461Z,8.40
2019-04-03T05:31:06.049Z,8.40
2019-04-03T05:32:05.701Z,8.40
2019-04-03T05:33:05.835Z,8.40
2019-04-03T05:34:05.851Z,8.40
2019-04-03T05:35:06.130Z,8.50
2019-04-03T05:36:05.873Z,8.50
2019-04-03T05:37:06.131Z,8.50
2019-04-03T05:38:05.856Z,8.60
2019-04-03T05:39:05.728Z,8.60
2019-04-03T05:40:05.842Z,8.60
2019-04-03T05:41:05.969Z,8.60
2019-04-03T05:42:05.850Z,8.60
2019-04-03T05:43:05.991Z,8.60
2019-04-03T05:44:05.832Z,8.70
2019-04-03T05:45:05.923Z,8.70
2019-04-03T05:46:06.330Z,8.70
2019-04-03T05:47:07.815Z,8.70
2019-04-03T05:48:06.824Z,8.80
2019-04-03T05:49:05.841Z,8.80
2019-04-03T05:50:05.874Z,8.80
2019-04-03T05:51:06.177Z,8.80
2019-04-03T05:52:05.859Z,8.80
2019-04-03T05:53:06.462Z,8.80
2019-04-03T05:54:05.896Z,8.90
2019-04-03T05:55:06.003Z,8.90
2019-04-03T05:56:05.862Z,8.90
2019-04-03T05:57:09.669Z,9.00
2019-04-03T05:58:05.852Z,9.00
2019-04-03T05:59:05.906Z,9.10
2019-04-03T06:00:06.770Z,9.20
2019-04-03T06:01:06.844Z,9.30
2019-04-03T06:02:14.532Z,9.30
2019-04-03T06:03:05.847Z,9.40
2019-04-03T06:04:05.892Z,9.50
2019-04-03T06:05:06.568Z,9.60
2019-04-03T06:06:06.133Z,9.70
2019-04-03T06:07:05.866Z,9.80
2019-04-03T06:08:05.936Z,9.90
2019-04-03T06:09:05.874Z,10.00
2019-04-03T06:10:06.212Z,10.10
2019-04-03T06:11:08.795Z,10.10
2019-04-03T06:12:08.292Z,10.20
2019-04-03T06:13:06.296Z,10.30
2019-04-03T06:14:08.190Z,10.30
2019-04-03T06:15:07.654Z,10.30
2019-04-03T06:16:06.055Z,10.30
2019-04-03T06:17:05.867Z,10.30
2019-04-03T06:19:06.743Z,10.40
2019-04-03T06:19:10.588Z,10.40
2019-04-03T06:20:05.885Z,10.40
2019-04-03T06:21:06.144Z,10.40
2019-04-03T06:22:06.061Z,10.40
2019-04-03T06:23:05.876Z,10.40
2019-04-03T06:24:05.901Z,10.40
2019-04-03T06:25:05.758Z,10.40
2019-04-03T06:26:05.950Z,10.40
2019-04-03T06:27:06.000Z,10.40
2019-04-03T06:28:05.948Z,10.40
2019-04-03T06:29:07.609Z,10.40
2019-04-03T06:30:06.225Z,10.30
2019-04-03T06:31:08.051Z,10.30
2019-04-03T06:32:05.977Z,10.40
2019-04-03T06:33:06.002Z,10.30
2019-04-03T06:34:07.319Z,10.40
2019-04-03T06:35:05.890Z,10.40
2019-04-03T06:36:06.087Z,10.40
2019-04-03T06:37:05.912Z,10.40
2019-04-03T06:38:05.951Z,10.40
2019-04-03T06:40:05.966Z,10.40
2019-04-03T06:41:07.764Z,10.40
2019-04-03T06:42:05.926Z,10.40
2019-04-03T06:43:05.878Z,10.40
2019-04-03T06:44:05.913Z,10.40
2019-04-03T06:45:05.914Z,10.40
2019-04-03T06:46:05.906Z,10.50
2019-04-03T06:47:05.935Z,10.50
2019-04-03T06:48:05.928Z,10.50
2019-04-03T06:49:07.805Z,10.50
2019-04-03T06:50:05.780Z,10.50
2019-04-03T06:52:05.901Z,10.50
2019-04-03T06:53:05.958Z,10.60
2019-04-03T06:54:07.778Z,10.60
2019-04-03T06:55:05.969Z,10.60
2019-04-03T06:56:07.607Z,10.60
2019-04-03T06:57:05.938Z,10.60
2019-04-03T06:58:05.942Z,10.60
2019-04-03T07:00:06.032Z,10.60
2019-04-03T07:00:10.714Z,10.60
2019-04-03T07:01:05.924Z,10.60
2019-04-03T07:03:05.968Z,10.70
2019-04-03T07:04:06.376Z,10.70
2019-04-03T07:05:05.943Z,10.70
2019-04-03T07:06:05.908Z,10.70
2019-04-03T07:07:05.947Z,10.80
2019-04-03T07:08:06.339Z,10.80
2019-04-03T07:09:06.251Z,10.80
2019-04-03T07:10:08.413Z,10.80
2019-04-03T07:11:04.129Z,10.80
2019-04-03T07:12:05.985Z,10.90
2019-04-03T07:13:05.956Z,10.90
2019-04-03T07:14:05.972Z,11.00
2019-04-03T07:15:05.986Z,11.00
2019-04-03T07:16:06.013Z,11.10
2019-04-03T07:17:06.188Z,11.10
2019-04-03T07:18:06.621Z,11.20
2019-04-03T07:19:08.126Z,11.30
2019-04-03T07:20:13.178Z,11.40
2019-04-03T07:21:06.179Z,11.50
2019-04-03T07:22:05.966Z,11.60
2019-04-03T07:23:06.182Z,11.60
2019-04-03T07:24:06.052Z,11.70
2019-04-03T07:25:05.987Z,11.70
2019-04-03T07:26:05.870Z,11.80
2019-04-03T07:28:08.179Z,11.80
2019-04-03T07:29:05.975Z,11.90
2019-04-03T07:30:06.025Z,11.90
2019-04-03T07:32:05.831Z,12.00
2019-04-03T07:32:10.781Z,12.00
2019-04-03T07:33:06.368Z,12.10
2019-04-03T07:34:05.811Z,12.10
2019-04-03T07:35:09.069Z,12.20
2019-04-03T07:36:06.004Z,12.20
2019-04-03T07:37:06.394Z,12.20
2019-04-03T07:38:05.992Z,12.20
2019-04-03T07:40:06.060Z,12.30
2019-04-03T07:40:10.770Z,12.30
2019-04-03T07:41:05.849Z,12.30
2019-04-03T07:42:05.993Z,12.40
2019-04-03T07:43:06.102Z,12.40
2019-04-03T07:44:05.975Z,12.40
2019-04-03T07:45:06.043Z,12.40
2019-04-03T07:46:05.976Z,12.50
2019-04-03T07:47:05.993Z,12.50
2019-04-03T07:48:06.937Z,12.50
2019-04-03T07:49:06.749Z,12.50
2019-04-03T07:50:06.014Z,12.50
2019-04-03T07:51:05.980Z,12.60
2019-04-03T07:52:05.989Z,12.60
2019-04-03T07:53:05.975Z,12.60
2019-04-03T07:54:05.962Z,12.60
2019-04-03T07:55:05.989Z,12.60
2019-04-03T07:56:06.284Z,12.60
2019-04-03T07:57:05.990Z,12.60
2019-04-03T07:58:06.214Z,12.60
2019-04-03T07:59:06.051Z,12.60
2019-04-03T08:00:07.011Z,12.60
2019-04-03T08:01:06.008Z,12.60
2019-04-03T08:02:05.990Z,12.60
2019-04-03T08:03:06.094Z,12.60
2019-04-03T08:04:06.000Z,12.70
2019-04-03T08:05:06.046Z,12.60
2019-04-03T08:06:06.224Z,12.70
2019-04-03T08:07:05.978Z,12.60
2019-04-03T08:08:09.994Z,12.70
2019-04-03T08:09:08.894Z,12.70
2019-04-03T08:10:05.983Z,12.70
2019-04-03T08:11:06.059Z,12.70
2019-04-03T08:12:05.972Z,12.70
2019-04-03T08:13:06.563Z,12.70
2019-04-03T08:14:06.700Z,12.70
2019-04-03T08:15:05.872Z,12.70
2019-04-03T08:16:06.076Z,12.70
2019-04-03T08:17:06.044Z,12.70
2019-04-03T08:18:06.133Z,12.70
2019-04-03T08:19:08.069Z,12.70
2019-04-03T08:20:06.000Z,12.70
2019-04-03T08:21:06.035Z,12.70
2019-04-03T08:22:06.215Z,12.70
2019-04-03T08:23:06.680Z,12.70
2019-04-03T08:24:08.050Z,12.70
2019-04-03T08:25:05.779Z,12.70
2019-04-03T08:26:06.038Z,12.70
2019-04-03T08:27:08.093Z,12.70
2019-04-03T08:28:06.312Z,12.70
2019-04-03T08:29:05.981Z,12.70
2019-04-03T08:30:08.426Z,12.70
2019-04-03T08:31:05.783Z,12.70
2019-04-03T08:32:06.064Z,12.70
2019-04-03T08:33:15.065Z,12.70
2019-04-03T08:34:15.443Z,12.70
2019-04-03T08:35:18.664Z,12.70
2019-04-03T08:36:07.616Z,12.70
2019-04-03T08:37:06.038Z,12.70
2019-04-03T08:38:06.005Z,12.70
2019-04-03T08:39:06.014Z,12.70
2019-04-03T08:40:06.018Z,12.70
2019-04-03T08:41:06.326Z,12.70
2019-04-03T08:42:06.090Z,12.70
2019-04-03T08:43:04.429Z,12.70
2019-04-03T08:44:07.693Z,12.70
2019-04-03T08:45:06.891Z,12.80
2019-04-03T08:46:06.004Z,12.80
2019-04-03T08:47:06.048Z,12.80
2019-04-03T08:48:07.116Z,12.80
2019-04-03T08:49:06.081Z,12.80
2019-04-03T08:50:06.122Z,12.80
2019-04-03T08:51:06.077Z,12.80
2019-04-03T08:52:09.708Z,12.80
2019-04-03T08:53:08.303Z,12.80
2019-04-03T08:54:05.773Z,12.80
2019-04-03T08:55:04.168Z,12.90
2019-04-03T08:56:06.030Z,12.90
2019-04-03T08:57:06.053Z,12.90
2019-04-03T08:58:05.999Z,12.90
2019-04-03T08:59:06.017Z,12.90
2019-04-03T09:00:06.129Z,12.90
2019-04-03T09:01:06.025Z,12.90
2019-04-03T09:02:07.710Z,12.90
2019-04-03T09:03:05.903Z,12.90
2019-04-03T09:04:05.870Z,12.90
2019-04-03T09:05:06.027Z,12.90
2019-04-03T09:07:06.148Z,12.90
2019-04-03T09:07:10.567Z,12.90
2019-04-03T09:08:04.115Z,12.90
2019-04-03T09:10:05.868Z,13.00
2019-04-03T09:10:11.113Z,13.00
2019-04-03T09:11:06.105Z,13.00
2019-04-03T09:12:07.240Z,13.00
2019-04-03T09:13:16.469Z,13.00
2019-04-03T09:14:06.036Z,13.10
2019-04-03T09:15:06.030Z,13.10
2019-04-03T09:16:06.042Z,13.10
2019-04-03T09:17:06.290Z,13.10
2019-04-03T09:18:06.841Z,13.10
2019-04-03T09:19:06.221Z,13.10
2019-04-03T09:20:06.077Z,13.10
2019-04-03T09:21:06.094Z,13.10
2019-04-03T09:22:06.324Z,13.20
2019-04-03T09:23:06.052Z,13.20
2019-04-03T09:24:06.072Z,13.20
2019-04-03T09:25:06.047Z,13.20
2019-04-03T09:26:06.056Z,13.20
2019-04-03T09:27:08.127Z,13.30
2019-04-03T09:28:04.275Z,13.30
2019-04-03T09:29:04.483Z,13.30
2019-04-03T09:30:06.162Z,13.30
2019-04-03T09:31:06.076Z,13.40
2019-04-03T09:32:06.040Z,13.40
2019-04-03T09:33:06.079Z,13.50
2019-04-03T09:34:06.039Z,13.50
2019-04-03T09:35:06.155Z,13.50
2019-04-03T09:37:07.029Z,13.60
2019-04-03T09:37:10.877Z,13.50
2019-04-03T09:38:04.266Z,13.60
2019-04-03T09:39:05.951Z,13.60
2019-04-03T09:40:06.098Z,13.70
2019-04-03T09:41:06.250Z,13.70
2019-04-03T09:42:06.068Z,13.80
2019-04-03T09:43:06.137Z,13.80
2019-04-03T09:44:06.061Z,13.90
2019-04-03T09:45:06.181Z,13.90
2019-04-03T09:46:06.053Z,13.90
2019-04-03T09:47:04.243Z,13.90
2019-04-03T09:48:06.184Z,14.00
2019-04-03T09:49:07.531Z,14.00
2019-04-03T09:50:06.377Z,14.10
2019-04-03T09:51:08.574Z,14.10
2019-04-03T09:52:04.282Z,14.20
2019-04-03T09:53:06.228Z,14.20
2019-04-03T09:54:06.105Z,14.30
2019-04-03T09:55:06.276Z,14.30
2019-04-03T09:56:07.885Z,14.40
2019-04-03T09:57:06.424Z,14.50
2019-04-03T09:58:06.130Z,14.50
2019-04-03T09:59:07.191Z,14.60
2019-04-03T10:00:06.146Z,14.70
2019-04-03T10:01:04.285Z,14.70
2019-04-03T10:02:06.088Z,14.80
2019-04-03T10:03:05.848Z,14.90
2019-04-03T10:04:06.107Z,15.00
2019-04-03T10:05:06.442Z,15.00
2019-04-03T10:07:04.319Z,15.10
2019-04-03T10:07:11.208Z,15.00
2019-04-03T10:08:08.283Z,15.10
2019-04-03T10:09:04.240Z,15.20
2019-04-03T10:10:06.079Z,15.20
2019-04-03T10:11:06.100Z,15.30
2019-04-03T10:12:06.091Z,15.30
2019-04-03T10:13:06.102Z,15.40
2019-04-03T10:14:06.168Z,15.40
2019-04-03T10:15:06.094Z,15.50
2019-04-03T10:16:06.119Z,15.50
2019-04-03T10:17:07.075Z,15.60
2019-04-03T10:18:06.867Z,15.60
2019-04-03T10:19:05.965Z,15.60
2019-04-03T10:20:06.371Z,15.60
2019-04-03T10:21:06.117Z,15.70
2019-04-03T10:22:06.161Z,15.70
2019-04-03T10:23:06.416Z,15.80
2019-04-03T10:24:04.261Z,15.80
2019-04-03T10:25:06.358Z,15.80
2019-04-03T10:26:08.356Z,15.80
2019-04-03T10:27:06.107Z,15.90
2019-04-03T10:28:06.113Z,15.90
2019-04-03T10:29:06.120Z,15.90
2019-04-03T10:30:06.338Z,16.00
2019-04-03T10:31:06.089Z,16.00
2019-04-03T10:32:06.110Z,16.00
2019-04-03T10:33:06.107Z,16.10
2019-04-03T10:34:06.172Z,16.10
2019-04-03T10:35:07.200Z,16.10
2019-04-03T10:36:04.333Z,16.10
2019-04-03T10:37:06.111Z,16.10
2019-04-03T10:39:06.428Z,16.10
2019-04-03T10:40:04.086Z,16.20
2019-04-03T10:41:04.205Z,16.20
2019-04-03T10:42:06.088Z,16.20
2019-04-03T10:43:06.382Z,16.20
2019-04-03T10:44:04.201Z,16.30
2019-04-03T10:45:06.115Z,16.30
2019-04-03T10:46:04.224Z,16.30
2019-04-03T10:47:06.116Z,16.40
2019-04-03T10:48:06.148Z,16.40
2019-04-03T10:49:06.167Z,16.40
2019-04-03T10:50:06.009Z,16.50
2019-04-03T10:51:07.012Z,16.50
2019-04-03T10:52:06.288Z,16.50
2019-04-03T10:53:06.117Z,16.50
2019-04-03T10:54:06.124Z,16.60
2019-04-03T10:55:06.134Z,16.60
2019-04-03T10:56:06.486Z,16.60
2019-04-03T10:57:06.348Z,16.60
2019-04-03T10:58:07.090Z,16.70
2019-04-03T10:59:11.307Z,16.70
2019-04-03T11:00:06.105Z,16.70
2019-04-03T11:01:06.130Z,16.70
2019-04-03T11:02:06.283Z,16.70
2019-04-03T11:03:06.252Z,16.70
2019-04-03T11:04:09.922Z,16.80
2019-04-03T11:05:04.272Z,16.80
2019-04-03T11:06:04.207Z,16.80
2019-04-03T11:07:06.158Z,16.80
2019-04-03T11:08:06.172Z,16.80
2019-04-03T11:09:06.501Z,16.90
2019-04-03T11:11:06.205Z,16.90
2019-04-03T11:12:04.342Z,16.90
2019-04-03T11:13:04.417Z,17.00
2019-04-03T11:14:06.470Z,17.00
2019-04-03T11:15:06.207Z,17.00
2019-04-03T11:16:06.141Z,17.00
2019-04-03T11:17:06.152Z,17.00
2019-04-03T11:18:06.141Z,17.00
2019-04-03T11:19:06.926Z,17.10
2019-04-03T11:20:04.242Z,17.10
2019-04-03T11:21:06.155Z,17.10
2019-04-03T11:22:06.200Z,17.20
2019-04-03T11:23:07.815Z,17.20
2019-04-03T11:24:04.369Z,17.30
2019-04-03T11:25:04.274Z,17.30
2019-04-03T11:26:04.181Z,17.40
2019-04-03T11:27:06.177Z,17.40
2019-04-03T11:28:05.455Z,17.40
2019-04-03T11:29:08.246Z,17.40
2019-04-03T11:30:06.179Z,17.40
2019-04-03T11:31:04.214Z,17.40
2019-04-03T11:33:06.033Z,17.40
2019-04-03T11:34:06.160Z,17.40
2019-04-03T11:35:04.126Z,17.50
2019-04-03T11:36:06.463Z,17.50
2019-04-03T11:37:06.434Z,17.50
2019-04-03T11:39:12.210Z,17.50
2019-04-03T11:40:05.067Z,17.50
2019-04-03T11:41:12.333Z,17.60
2019-04-03T11:42:06.067Z,17.60
2019-04-03T11:43:06.242Z,17.60
2019-04-03T11:44:06.183Z,17.60
2019-04-03T11:45:04.805Z,17.60
2019-04-03T11:46:04.289Z,17.60
2019-04-03T11:47:04.503Z,17.60
2019-04-03T11:48:06.180Z,17.70
2019-04-03T11:49:06.200Z,17.60
2019-04-03T11:50:06.238Z,17.70
2019-04-03T11:51:06.436Z,17.60
2019-04-03T11:52:06.259Z,17.60
2019-04-03T11:53:07.571Z,17.70
2019-04-03T11:55:04.616Z,17.70
2019-04-03T11:56:06.037Z,17.70
2019-04-03T11:57:06.525Z,17.70
2019-04-03T11:58:04.145Z,17.70
2019-04-03T11:59:06.277Z,17.70
2019-04-03T12:00:06.426Z,17.70
2019-04-03T12:01:06.538Z,17.70
2019-04-03T12:02:07.753Z,17.70
2019-04-03T12:03:04.561Z,17.80
2019-04-03T12:04:06.194Z,17.80
2019-04-03T12:05:06.329Z,17.80
2019-04-03T12:06:04.125Z,17.80
2019-04-03T12:07:06.158Z,17.80
2019-04-03T12:08:06.349Z,17.90
2019-04-03T12:09:06.647Z,17.90
2019-04-03T12:10:06.276Z,17.90
2019-04-03T12:11:07.322Z,17.80
2019-04-03T12:12:04.568Z,17.90
2019-04-03T12:13:04.699Z,17.80
2019-04-03T12:14:06.240Z,17.90
2019-04-03T12:15:06.609Z,17.90
2019-04-03T12:16:04.190Z,17.90
2019-04-03T12:17:04.536Z,17.90
2019-04-03T12:18:04.409Z,17.90
2019-04-03T12:19:05.004Z,17.90
2019-04-03T12:20:04.306Z,18.00
2019-04-03T12:21:04.225Z,18.00
2019-04-03T12:22:06.259Z,18.00
2019-04-03T12:23:06.264Z,18.00
2019-04-03T12:24:06.216Z,18.00
2019-04-03T12:25:06.235Z,18.00
2019-04-03T12:26:06.234Z,18.10
2019-04-03T12:27:06.248Z,18.10
2019-04-03T12:28:06.923Z,18.10
2019-04-03T12:29:07.632Z,18.20
2019-04-03T12:30:06.110Z,18.30
2019-04-03T12:31:06.265Z,18.30
2019-04-03T12:32:08.289Z,18.30
2019-04-03T12:33:04.643Z,18.30
2019-04-03T12:34:06.758Z,18.30
2019-04-03T12:35:07.219Z,18.30
2019-04-03T12:36:06.419Z,18.30
2019-04-03T12:37:06.252Z,18.30
2019-04-03T12:38:06.274Z,18.30
2019-04-03T12:39:06.347Z,18.20
2019-04-03T12:40:06.247Z,18.20
2019-04-03T12:41:06.567Z,18.10
2019-04-03T12:42:04.109Z,18.10
2019-04-03T12:43:06.538Z,18.10
2019-04-03T12:44:04.327Z,18.10
2019-04-03T12:45:06.299Z,18.10
2019-04-03T12:46:06.308Z,18.10
2019-04-03T12:47:12.088Z,18.10
2019-04-03T12:48:04.320Z,18.10
2019-04-03T12:49:07.224Z,18.10
2019-04-03T12:50:06.335Z,18.10
2019-04-03T12:52:06.608Z,18.10
2019-04-03T12:53:04.157Z,18.10
2019-04-03T12:54:04.252Z,18.10
2019-04-03T12:55:04.243Z,18.10
2019-04-03T12:56:06.606Z,18.10
2019-04-03T12:57:04.545Z,18.10
2019-04-03T12:58:06.358Z,18.20
2019-04-03T12:59:08.622Z,18.20
2019-04-03T13:00:04.284Z,18.20
2019-04-03T13:01:06.279Z,18.10
2019-04-03T13:02:04.270Z,18.10
2019-04-03T13:03:06.640Z,18.10
2019-04-03T13:04:09.287Z,18.10
2019-04-03T13:05:06.920Z,18.10
2019-04-03T13:06:04.139Z,18.00
2019-04-03T13:07:06.451Z,18.00
2019-04-03T13:08:06.357Z,18.00
2019-04-03T13:09:04.497Z,17.90
2019-04-03T13:10:07.646Z,17.90
2019-04-03T13:11:06.300Z,17.90
2019-04-03T13:12:06.341Z,17.80
2019-04-03T13:13:06.741Z,17.80
2019-04-03T13:14:04.319Z,17.70
2019-04-03T13:15:05.751Z,17.70
2019-04-03T13:16:06.927Z,17.70
2019-04-03T13:17:04.274Z,17.70